Time;durP1;ratioP1;P1;durP2;ratioP2;P2;SDS_P1;SDS_P2;PMS_P1;PMS_P2;Temp;Humidity;BMP_temperature;BMP_pressure;BME280_temperature;BME280_humidity;BME280_pressure;Samples;Min_cycle;Max_cycle;Signal;HPM_P1;HPM_P2
2024/01/06 00:01:44;;;;;;;;;;;;;;;2.46;92.89;100083.69;4212881;28;20035;-68
2024/01/06 00:03:46;;;;;;;;;;;;;;;2.46;93.08;100086.38;4214174;28;20384;-68
2024/01/06 00:05:48;;;;;;;;;;;;;;;2.48;93.00;100089.72;4213629;28;20022;-68
2024/01/06 00:07:50;;;;;;;;;;;;;;;2.47;92.89;100085.38;4213122;28;20087;-68
2024/01/06 00:09:52;;;;;;;;;;;;;;;2.46;92.82;100089.03;4212670;28;20019;-68
2024/01/06 00:11:56;;;;;;;;;;;;;;;2.47;93.01;100087.19;4213092;28;20043;-68
2024/01/06 00:13:56;;;;;;;;;;;;;;;2.47;92.87;100081.88;4214087;28;20015;-68
2024/01/06 00:15:59;;;;;;;;;;;;;;;2.47;92.82;100074.69;4214158;28;20527;-68
2024/01/06 00:18:01;;;;;;;;;;;;;;;2.47;92.88;100073.88;4213818;28;20055;-68
2024/01/06 00:20:04;;;;;;;;;;;;;;;2.47;92.78;100074.69;4212641;28;20023;-68
2024/01/06 00:22:06;;;;;;;;;;;;;;;2.47;93.23;100082.69;4208761;28;19938;-68
2024/01/06 00:24:08;;;;;;;;;;;;;;;2.47;93.17;100084.53;4209090;28;20018;-69
2024/01/06 00:26:11;;;;;;;;;;;;;;;2.46;92.83;100078.38;4211943;28;20023;-68
2024/01/06 00:28:14;;;;;;;;;;;;;;;2.47;92.75;100087.19;4211144;28;20006;-69
2024/01/06 00:30:16;;;;;;;;;;;;;;;2.47;92.87;100087.19;4209734;28;20032;-69
2024/01/06 00:32:18;;;;;;;;;;;;;;;2.45;92.64;100087.34;4210356;28;20469;-69
2024/01/06 00:34:20;;;;;;;;;;;;;;;2.44;92.58;100082.97;4213479;28;20014;-69
2024/01/06 00:36:22;;;;;;;;;;;;;;;2.45;92.57;100083.84;4207198;28;20011;-69
2024/01/06 00:38:24;;;;;;;;;;;;;;;2.44;92.49;100079.47;4212150;28;20023;-68
2024/01/06 00:40:26;;;;;;;;;;;;;;;2.45;92.67;100092.66;4211479;28;20031;-69
2024/01/06 00:42:28;;;;;;;;;;;;;;;2.46;92.69;100088.16;4212852;28;20036;-68
2024/01/06 00:44:31;;;;;;;;;;;;;;;2.46;92.71;100089.03;4210690;28;19974;-69
2024/01/06 00:46:33;;;;;;;;;;;;;;;2.46;92.87;100096.16;4213202;28;20016;-69
2024/01/06 00:48:35;;;;;;;;;;;;;;;2.44;92.58;100092.81;4213679;28;20388;-68
2024/01/06 00:50:37;;;;;;;;;;;;;;;2.45;92.77;100089.16;4212864;28;20022;-68
2024/01/06 00:52:39;;;;;;;;;;;;;;;2.43;92.48;100083.97;4211790;28;20022;-69
2024/01/06 00:54:41;;;;;;;;;;;;;;;2.43;92.48;100085.78;4213440;28;20031;-69
2024/01/06 00:56:43;;;;;;;;;;;;;;;2.44;92.64;100093.63;4212972;28;20344;-68
2024/01/06 00:58:45;;;;;;;;;;;;;;;2.43;92.56;100097.31;4212670;28;20006;-68
2024/01/06 01:00:49;;;;;;;;;;;;;;;2.43;92.72;100102.63;4212174;28;20449;-68
2024/01/06 01:02:51;;;;;;;;;;;;;;;2.45;92.60;100113.16;4204081;27;20606;-69
2024/01/06 01:04:53;;;;;;;;;;;;;;;2.45;92.63;100116.66;4212580;28;20023;-68
2024/01/06 01:06:55;;;;;;;;;;;;;;;2.45;92.90;100119.31;4212645;28;20026;-68
2024/01/06 01:08:57;;;;;;;;;;;;;;;2.45;92.80;100116.66;4211207;28;20066;-68
2024/01/06 01:10:59;;;;;;;;;;;;;;;2.45;92.69;100122.00;4211025;28;20042;-68
2024/01/06 01:13:01;;;;;;;;;;;;;;;2.43;92.21;100121.28;4211553;28;20032;-68
2024/01/06 01:15:03;;;;;;;;;;;;;;;2.43;92.22;100117.75;4212165;28;20024;-68
2024/01/06 01:17:06;;;;;;;;;;;;;;;2.43;92.21;100123.09;4212182;28;20035;-68
2024/01/06 01:19:08;;;;;;;;;;;;;;;2.43;92.31;100120.44;4212617;28;20851;-69
2024/01/06 01:21:10;;;;;;;;;;;;;;;2.41;91.97;100123.22;4212253;28;20011;-70
2024/01/06 01:23:12;;;;;;;;;;;;;;;2.41;92.25;100125.91;4212967;28;20019;-69
2024/01/06 01:25:13;;;;;;;;;;;;;;;2.44;92.13;100127.47;4212591;28;20374;-69
2024/01/06 01:27:15;;;;;;;;;;;;;;;2.42;92.54;100124.09;4211836;28;20429;-69
2024/01/06 01:29:16;;;;;;;;;;;;;;;2.42;92.27;100122.25;4211641;28;20015;-69
2024/01/06 01:31:18;;;;;;;;;;;;;;;2.42;92.29;100116.09;4212601;28;20015;-69
2024/01/06 01:33:22;;;;;;;;;;;;;;;2.43;92.39;100120.44;4211738;28;20019;-69
2024/01/06 01:35:24;;;;;;;;;;;;;;;2.41;92.42;100123.22;4212585;28;20031;-69
2024/01/06 01:37:26;;;;;;;;;;;;;;;2.41;92.46;100125.91;4212180;28;20076;-68
2024/01/06 01:39:28;;;;;;;;;;;;;;;2.39;92.10;100122.53;4212351;28;19963;-69
2024/01/06 01:41:30;;;;;;;;;;;;;;;2.39;92.36;100130.53;4211057;28;20006;-69
2024/01/06 01:43:32;;;;;;;;;;;;;;;2.40;92.16;100128.72;4211019;28;19924;-69
2024/01/06 01:45:34;;;;;;;;;;;;;;;2.40;92.24;100126.03;4209356;28;20035;-69
2024/01/06 01:47:35;;;;;;;;;;;;;;;2.38;92.42;100128.84;4211764;28;20026;-69
2024/01/06 01:49:39;;;;;;;;;;;;;;;2.39;92.35;100124.38;4212057;28;20023;-69
2024/01/06 01:51:43;;;;;;;;;;;;;;;2.39;92.15;100135.03;4212393;28;20370;-69
2024/01/06 01:53:45;;;;;;;;;;;;;;;2.39;92.39;100135.03;4211830;28;20010;-69
2024/01/06 01:55:47;;;;;;;;;;;;;;;2.38;92.00;100128.00;4211865;28;20031;-69
2024/01/06 01:57:49;;;;;;;;;;;;;;;2.39;92.04;100135.88;4211161;28;20460;-69
2024/01/06 01:59:50;;;;;;;;;;;;;;;2.38;92.16;100142.16;4210663;28;20022;-69
2024/01/06 02:01:52;;;;;;;;;;;;;;;2.37;92.19;100134.31;4211930;28;19935;-69
2024/01/06 02:03:54;;;;;;;;;;;;;;;2.36;91.92;100129.97;4212406;28;19924;-69
2024/01/06 02:05:57;;;;;;;;;;;;;;;2.36;92.07;100133.47;4211439;28;20455;-69
2024/01/06 02:07:59;;;;;;;;;;;;;;;2.37;91.93;100143.16;4212339;28;20027;-69
2024/01/06 02:10:01;;;;;;;;;;;;;;;2.34;91.62;100144.28;4211509;28;20011;-69
2024/01/06 02:12:03;;;;;;;;;;;;;;;2.35;91.87;100142.44;4211059;28;20019;-69
2024/01/06 02:14:05;;;;;;;;;;;;;;;2.36;92.08;100137.97;4211083;28;20015;-69
2024/01/06 02:16:07;;;;;;;;;;;;;;;2.35;91.77;100145.09;4210756;28;20016;-69
2024/01/06 02:18:09;;;;;;;;;;;;;;;2.34;91.90;100154.09;4210799;28;20011;-69
2024/01/06 02:20:12;;;;;;;;;;;;;;;2.33;91.75;100158.56;4212094;28;20027;-69
2024/01/06 02:22:15;;;;;;;;;;;;;;;2.33;91.57;100155.91;4202014;28;20023;-69
2024/01/06 02:24:17;;;;;;;;;;;;;;;2.33;91.74;100155.91;4209142;28;20015;-70
2024/01/06 02:26:19;;;;;;;;;;;;;;;2.33;91.75;100158.56;4210769;28;20026;-69
2024/01/06 02:28:21;;;;;;;;;;;;;;;2.32;91.46;100156.91;4209619;28;20032;-69
2024/01/06 02:30:23;;;;;;;;;;;;;;;2.30;91.43;100158.88;4211007;28;20007;-69
2024/01/06 02:32:25;;;;;;;;;;;;;;;2.31;91.32;100154.38;4210828;28;20019;-69
2024/01/06 02:34:27;;;;;;;;;;;;;;;2.32;91.94;100150.72;4211633;28;20028;-69
2024/01/06 02:36:29;;;;;;;;;;;;;;;2.32;91.75;100156.91;4210752;28;20018;-69
2024/01/06 02:38:32;;;;;;;;;;;;;;;2.31;91.60;100165.88;4211946;28;20007;-69
2024/01/06 02:40:34;;;;;;;;;;;;;;;2.31;91.65;100157.88;4211008;28;20014;-69
2024/01/06 02:42:36;;;;;;;;;;;;;;;2.31;91.86;100162.38;4210370;28;20011;-69
2024/01/06 02:44:38;;;;;;;;;;;;;;;2.30;91.85;100164.22;4211317;28;20023;-69
2024/01/06 02:46:40;;;;;;;;;;;;;;;2.30;91.68;100164.22;4209843;28;20031;-69
2024/01/06 02:48:41;;;;;;;;;;;;;;;2.30;91.71;100156.22;4209538;28;20018;-69
2024/01/06 02:50:43;;;;;;;;;;;;;;;2.31;91.90;100167.72;4211700;28;19932;-69
2024/01/06 02:52:45;;;;;;;;;;;;;;;2.30;91.62;100169.53;4211165;28;20433;-69
2024/01/06 02:54:48;;;;;;;;;;;;;;;2.31;91.79;100170.38;4213663;28;20023;-69
2024/01/06 02:56:50;;;;;;;;;;;;;;;2.31;91.86;100168.53;4205073;28;20016;-69
2024/01/06 02:58:52;;;;;;;;;;;;;;;2.31;91.83;100167.72;4214843;28;20448;-69
2024/01/06 03:00:54;;;;;;;;;;;;;;;2.31;92.02;100173.03;4204832;28;19963;-69
2024/01/06 03:02:56;;;;;;;;;;;;;;;2.32;92.00;100169.38;4214403;28;20011;-69
2024/01/06 03:04:58;;;;;;;;;;;;;;;2.31;91.55;100170.38;4215131;28;20382;-70
2024/01/06 03:07:00;;;;;;;;;;;;;;;2.32;91.73;100166.72;4211800;28;20014;-70
2024/01/06 03:09:02;;;;;;;;;;;;;;;2.31;92.04;100176.53;4214339;28;20019;-70
2024/01/06 03:11:06;;;;;;;;;;;;;;;2.33;91.66;100176.41;4213506;28;20031;-70
2024/01/06 03:13:07;;;;;;;;;;;;;;;2.32;91.64;100182.69;4213814;28;19931;-70
2024/01/06 03:15:10;;;;;;;;;;;;;;;2.31;91.94;100189.84;4211913;28;20019;-69
2024/01/06 03:17:12;;;;;;;;;;;;;;;2.29;91.57;100186.50;4213732;28;20417;-70
2024/01/06 03:19:14;;;;;;;;;;;;;;;2.29;91.57;100178.50;4214181;28;20014;-69
2024/01/06 03:21:18;;;;;;;;;;;;;;;2.29;91.62;100185.66;4222116;27;20472;-70
2024/01/06 03:23:19;;;;;;;;;;;;;;;2.25;91.68;100179.75;4215161;28;20047;-69
2024/01/06 03:25:22;;;;;;;;;;;;;;;2.25;91.59;100185.06;4214701;28;20451;-69
2024/01/06 03:27:24;;;;;;;;;;;;;;;2.26;91.72;100185.94;4214390;28;20015;-69
2024/01/06 03:29:26;;;;;;;;;;;;;;;2.27;91.68;100183.13;4215081;28;20011;-70
2024/01/06 03:31:28;;;;;;;;;;;;;;;2.26;91.60;100178.78;4213317;28;20015;-69
2024/01/06 03:33:30;;;;;;;;;;;;;;;2.27;91.85;100184.94;4213603;28;20019;-70
2024/01/06 03:35:32;;;;;;;;;;;;;;;2.26;92.00;100192.09;4214441;28;20028;-69
2024/01/06 03:37:34;;;;;;;;;;;;;;;2.26;91.92;100185.94;4214486;28;20003;-69
2024/01/06 03:39:36;;;;;;;;;;;;;;;2.26;91.88;100193.94;4213867;28;20018;-70
2024/01/06 03:41:38;;;;;;;;;;;;;;;2.28;91.74;100194.63;4213608;28;20019;-71
2024/01/06 03:43:40;;;;;;;;;;;;;;;2.29;91.86;100199.00;4214177;28;20445;-70
2024/01/06 03:45:42;;;;;;;;;;;;;;;2.29;91.91;100202.50;4214185;28;19931;-69
2024/01/06 03:47:44;;;;;;;;;;;;;;;2.28;91.59;100206.13;4214868;28;20031;-69
2024/01/06 03:49:46;;;;;;;;;;;;;;;2.28;91.63;100207.94;4213890;28;20592;-70
2024/01/06 03:51:48;;;;;;;;;;;;;;;2.29;91.78;100209.66;4212190;28;20445;-69
2024/01/06 03:53:49;;;;;;;;;;;;;;;2.29;91.62;100212.31;4212900;28;20015;-68
2024/01/06 03:55:51;;;;;;;;;;;;;;;2.27;91.89;100211.59;4215005;28;20023;-70
2024/01/06 03:57:53;;;;;;;;;;;;;;;2.26;91.73;100213.41;4214020;28;20011;-70
2024/01/06 03:59:57;;;;;;;;;;;;;;;2.26;91.71;100213.41;4214197;28;20438;-71
2024/01/06 04:01:58;;;;;;;;;;;;;;;2.25;91.70;100210.88;4213244;28;20019;-69
2024/01/06 04:04:00;;;;;;;;;;;;;;;2.25;91.75;100224.22;4212719;28;20102;-70
2024/01/06 04:06:01;;;;;;;;;;;;;;;2.24;91.54;100220.72;4212881;28;20302;-70
2024/01/06 04:08:03;;;;;;;;;;;;;;;2.23;91.67;100218.19;4214046;28;20363;-69
2024/01/06 04:10:05;;;;;;;;;;;;;;;2.23;91.64;100223.50;4213315;28;20022;-70
2024/01/06 04:12:08;;;;;;;;;;;;;;;2.23;91.66;100223.50;4213349;28;20460;-69
2024/01/06 04:14:10;;;;;;;;;;;;;;;2.22;91.78;100225.31;4213386;28;20022;-70
2024/01/06 04:16:13;;;;;;;;;;;;;;;2.22;91.52;100222.66;4213136;28;20011;-70
2024/01/06 04:18:15;;;;;;;;;;;;;;;2.23;91.36;100224.34;4211262;28;20031;-69
2024/01/06 04:20:17;;;;;;;;;;;;;;;2.23;91.62;100226.19;4214039;28;20031;-70
2024/01/06 04:22:19;;;;;;;;;;;;;;;2.22;91.66;100225.31;4212851;28;20023;-70
2024/01/06 04:24:20;;;;;;;;;;;;;;;2.22;91.34;100227.97;4213075;28;20031;-70
2024/01/06 04:26:22;;;;;;;;;;;;;;;2.23;91.55;100228.84;4213609;28;19928;-70
2024/01/06 04:28:24;;;;;;;;;;;;;;;2.23;91.59;100229.69;4212947;28;20015;-69
2024/01/06 04:30:26;;;;;;;;;;;;;;;2.23;91.70;100236.84;4213321;28;20031;-69
2024/01/06 04:32:29;;;;;;;;;;;;;;;2.22;91.54;100238.63;4213112;28;20023;-70
2024/01/06 04:34:30;;;;;;;;;;;;;;;2.22;91.52;100241.31;4213300;28;20027;-69
2024/01/06 04:36:32;;;;;;;;;;;;;;;2.22;91.74;100240.47;4214118;28;19935;-70
2024/01/06 04:38:35;;;;;;;;;;;;;;;2.20;91.83;100243.28;4213850;28;20438;-69
2024/01/06 04:40:37;;;;;;;;;;;;;;;2.20;91.70;100248.59;4212561;28;20437;-69
2024/01/06 04:42:39;;;;;;;;;;;;;;;2.22;91.76;100243.13;4210893;28;20376;-69
2024/01/06 04:44:41;;;;;;;;;;;;;;;2.21;91.99;100239.63;4213455;28;20022;-71
2024/01/06 04:46:43;;;;;;;;;;;;;;;2.23;91.86;100247.50;4212049;28;19935;-69
2024/01/06 04:48:46;;;;;;;;;;;;;;;2.22;92.01;100248.47;4213833;28;20015;-70
2024/01/06 04:50:48;;;;;;;;;;;;;;;2.22;92.09;100245.81;4212384;28;20466;-68
2024/01/06 04:52:50;;;;;;;;;;;;;;;2.21;91.74;100241.44;4212836;28;20035;-69
2024/01/06 04:54:52;;;;;;;;;;;;;;;2.21;91.82;100239.63;4213235;28;20032;-70
2024/01/06 04:56:54;;;;;;;;;;;;;;;2.22;92.10;100249.28;4213354;28;20457;-70
2024/01/06 04:58:57;;;;;;;;;;;;;;;2.21;91.74;100244.09;4212767;28;20015;-70
2024/01/06 05:00:59;;;;;;;;;;;;;;;2.20;91.88;100256.59;4212524;28;20003;-70
2024/01/06 05:03:01;;;;;;;;;;;;;;;2.21;92.02;100254.75;4213346;28;20023;-70
2024/01/06 05:05:04;;;;;;;;;;;;;;;2.22;91.98;100261.78;4213121;28;20027;-69
2024/01/06 05:07:07;;;;;;;;;;;;;;;2.22;91.86;100256.47;4219750;28;19943;-70
2024/01/06 05:09:08;;;;;;;;;;;;;;;2.21;92.02;100266.28;4212989;28;20022;-69
2024/01/06 05:11:11;;;;;;;;;;;;;;;2.21;91.97;100268.94;4211617;28;20019;-70
2024/01/06 05:13:13;;;;;;;;;;;;;;;2.21;91.86;100270.75;4212346;28;20346;-70
2024/01/06 05:15:15;;;;;;;;;;;;;;;2.21;92.14;100263.63;4212312;28;20593;-69
2024/01/06 05:17:17;;;;;;;;;;;;;;;2.22;92.18;100269.78;4212124;28;20114;-69
2024/01/06 05:19:20;;;;;;;;;;;;;;;2.22;92.06;100265.28;4212238;28;20405;-69
2024/01/06 05:21:23;;;;;;;;;;;;;;;2.23;92.01;100269.66;4212617;28;20339;-70
2024/01/06 05:23:25;;;;;;;;;;;;;;;2.23;91.69;100261.66;4211991;28;20031;-70
2024/01/06 05:25:26;;;;;;;;;;;;;;;2.24;92.07;100270.47;4213241;28;20035;-70
2024/01/06 05:27:28;;;;;;;;;;;;;;;2.23;91.86;100266.16;4211717;28;19924;-70
2024/01/06 05:29:30;;;;;;;;;;;;;;;2.23;91.54;100276.81;4209711;28;19967;-70
2024/01/06 05:31:32;;;;;;;;;;;;;;;2.23;91.53;100282.13;4211473;28;20024;-70
2024/01/06 05:33:34;;;;;;;;;;;;;;;2.23;91.37;100284.81;4212821;28;20581;-70
2024/01/06 05:35:36;;;;;;;;;;;;;;;2.21;91.48;100286.72;4213027;28;20035;-70
2024/01/06 05:37:40;;;;;;;;;;;;;;;2.20;91.55;100283.22;4211721;28;20050;-70
2024/01/06 05:39:42;;;;;;;;;;;;;;;2.21;91.51;100287.59;4212387;28;20011;-69
2024/01/06 05:41:44;;;;;;;;;;;;;;;2.21;91.33;100287.59;4211377;28;20015;-69
2024/01/06 05:43:46;;;;;;;;;;;;;;;2.22;91.79;100291.94;4212341;28;20019;-70
2024/01/06 05:45:48;;;;;;;;;;;;;;;2.23;91.67;100292.78;4212612;28;20028;-70
2024/01/06 05:47:50;;;;;;;;;;;;;;;2.23;91.57;100295.47;4212734;28;20461;-69
2024/01/06 05:49:52;;;;;;;;;;;;;;;2.22;91.59;100301.75;4213298;28;19962;-70
2024/01/06 05:51:54;;;;;;;;;;;;;;;2.22;91.41;100302.59;4212448;28;20011;-70
2024/01/06 05:53:57;;;;;;;;;;;;;;;2.21;91.44;100308.91;4207900;28;20006;-70
2024/01/06 05:55:59;;;;;;;;;;;;;;;2.23;91.68;100314.09;4210004;28;20359;-70
2024/01/06 05:58:01;;;;;;;;;;;;;;;2.21;91.67;100314.25;4212546;28;19962;-70
2024/01/06 06:00:04;;;;;;;;;;;;;;;2.21;91.78;100314.25;4212587;28;20432;-69
2024/01/06 06:02:14;;;;;;;;;;;;;;;2.21;91.44;100314.25;4210809;28;20034;-70
2024/01/06 06:04:16;;;;;;;;;;;;;;;2.22;91.54;100307.09;4211630;28;20063;-70
2024/01/06 06:06:18;;;;;;;;;;;;;;;2.21;91.63;100319.56;4212799;28;20044;-70
2024/01/06 06:08:20;;;;;;;;;;;;;;;2.21;91.68;100321.38;4212291;28;19924;-69
2024/01/06 06:10:29;;;;;;;;;;;;;;;2.21;91.31;100326.69;4210979;28;20023;-71
2024/01/06 06:12:32;;;;;;;;;;;;;;;2.21;91.47;100335.56;4210626;28;20478;-71
2024/01/06 06:14:34;;;;;;;;;;;;;;;2.22;91.35;100331.06;4211456;28;20022;-70
2024/01/06 06:16:36;;;;;;;;;;;;;;;2.22;91.56;100339.88;4210462;28;19951;-70
2024/01/06 06:18:38;;;;;;;;;;;;;;;2.22;91.72;100336.41;4210910;28;20014;-70
2024/01/06 06:20:41;;;;;;;;;;;;;;;2.21;91.40;100332.91;4211867;28;20458;-70
2024/01/06 06:22:43;;;;;;;;;;;;;;;2.21;91.68;100340.03;4211031;28;20027;-69
2024/01/06 06:24:45;;;;;;;;;;;;;;;2.20;91.61;100355.19;4210945;28;20022;-70
2024/01/06 06:26:48;;;;;;;;;;;;;;;2.21;91.67;100356.00;4211256;28;20023;-69
2024/01/06 06:28:50;;;;;;;;;;;;;;;2.20;91.63;100360.50;4210586;28;20382;-70
2024/01/06 06:30:52;;;;;;;;;;;;;;;2.21;91.45;100362.22;4209187;28;20007;-70
2024/01/06 06:32:54;;;;;;;;;;;;;;;2.21;91.70;100364.00;4209865;28;20378;-70
2024/01/06 06:34:56;;;;;;;;;;;;;;;2.21;91.61;100366.66;4211264;28;20007;-70
2024/01/06 06:36:58;;;;;;;;;;;;;;;2.23;91.62;100367.41;4212186;28;20020;-69
2024/01/06 06:39:04;;;;;;;;;;;;;;;2.22;91.56;100363.88;4212529;28;20027;-70
2024/01/06 06:41:06;;;;;;;;;;;;;;;2.20;91.50;100371.16;4208417;28;20027;-69
2024/01/06 06:43:10;;;;;;;;;;;;;;;2.21;91.61;100383.53;4209409;28;20026;-69
2024/01/06 06:45:12;;;;;;;;;;;;;;;2.21;91.32;100391.50;4210373;28;20018;-70
2024/01/06 06:47:14;;;;;;;;;;;;;;;2.22;91.28;100392.34;4210043;28;20015;-70
2024/01/06 06:49:16;;;;;;;;;;;;;;;2.22;91.23;100389.69;4210247;28;19932;-69
2024/01/06 06:51:18;;;;;;;;;;;;;;;2.21;91.37;100394.19;4210094;28;20019;-71
2024/01/06 06:53:20;;;;;;;;;;;;;;;2.22;91.30;100392.34;4211225;28;20010;-70
2024/01/06 06:55:22;;;;;;;;;;;;;;;2.22;91.20;100403.84;4211495;28;20449;-71
2024/01/06 06:57:24;;;;;;;;;;;;;;;2.24;91.30;100409.03;4209753;28;19968;-72
2024/01/06 06:59:27;;;;;;;;;;;;;;;2.21;91.21;100418.16;4209702;28;20360;-70
2024/01/06 07:01:28;;;;;;;;;;;;;;;2.20;91.12;100424.47;4208925;28;20015;-70
2024/01/06 07:03:30;;;;;;;;;;;;;;;2.20;90.96;100426.28;4209946;28;20031;-70
2024/01/06 07:05:32;;;;;;;;;;;;;;;2.21;91.21;100430.63;4210060;28;20018;-70
2024/01/06 07:07:34;;;;;;;;;;;;;;;2.21;91.23;100442.16;4211354;28;20019;-71
2024/01/06 07:09:35;;;;;;;;;;;;;;;2.20;91.01;100442.28;4210147;28;19925;-71
2024/01/06 07:11:37;;;;;;;;;;;;;;;2.20;90.82;100439.59;4210180;28;19935;-70
2024/01/06 07:13:39;;;;;;;;;;;;;;;2.19;91.19;100438.75;4210584;28;20477;-70
2024/01/06 07:15:42;;;;;;;;;;;;;;;2.19;91.05;100440.56;4211213;28;20481;-70
2024/01/06 07:17:44;;;;;;;;;;;;;;;2.17;91.04;100446.03;4210581;28;20018;-71
2024/01/06 07:19:46;;;;;;;;;;;;;;;2.19;91.08;100453.91;4210669;28;20019;-70
2024/01/06 07:21:48;;;;;;;;;;;;;;;2.20;91.30;100452.94;4210452;28;20406;-71
2024/01/06 07:23:50;;;;;;;;;;;;;;;2.17;90.95;100456.69;4210237;28;20023;-69
2024/01/06 07:25:52;;;;;;;;;;;;;;;2.17;90.99;100465.53;4211932;28;20026;-69
2024/01/06 07:27:54;;;;;;;;;;;;;;;2.16;90.90;100469.19;4210977;28;20659;-69
2024/01/06 07:29:55;;;;;;;;;;;;;;;2.17;90.96;100478.00;4210622;28;20027;-70
2024/01/06 07:31:59;;;;;;;;;;;;;;;2.16;91.07;100473.63;4211230;28;20453;-70
2024/01/06 07:34:00;;;;;;;;;;;;;;;2.16;91.00;100478.97;4210748;28;20042;-70
2024/01/06 07:36:02;;;;;;;;;;;;;;;2.15;90.96;100477.28;4211160;28;19985;-70
2024/01/06 07:38:04;;;;;;;;;;;;;;;2.14;90.93;100476.44;4211517;28;19996;-70
2024/01/06 07:40:06;;;;;;;;;;;;;;;2.13;90.87;100482.75;4210988;28;20014;-69
2024/01/06 07:42:08;;;;;;;;;;;;;;;2.14;90.96;100480.94;4213789;28;20019;-69
2024/01/06 07:44:10;;;;;;;;;;;;;;;2.13;90.86;100476.56;4214368;28;19989;-70
2024/01/06 07:46:12;;;;;;;;;;;;;;;2.13;90.85;100481.88;4213140;28;20031;-69
2024/01/06 07:48:16;;;;;;;;;;;;;;;2.12;91.22;100483.72;4213265;28;20457;-70
2024/01/06 07:50:18;;;;;;;;;;;;;;;2.11;91.02;100482.03;4214079;28;19924;-69
2024/01/06 07:52:19;;;;;;;;;;;;;;;2.10;91.02;100483.00;4213618;28;20016;-70
2024/01/06 07:54:21;;;;;;;;;;;;;;;2.11;91.09;100492.69;4213315;28;19927;-70
2024/01/06 07:56:23;;;;;;;;;;;;;;;2.11;91.19;100500.66;4213288;28;20019;-68
2024/01/06 07:58:25;;;;;;;;;;;;;;;2.12;90.95;100505.03;4214046;28;20563;-69
2024/01/06 08:00:27;;;;;;;;;;;;;;;2.12;91.02;100506.88;4213119;28;19979;-68
2024/01/06 08:02:29;;;;;;;;;;;;;;;2.10;90.83;100514.97;4212417;28;20023;-69
2024/01/06 08:04:33;;;;;;;;;;;;;;;2.11;91.04;100521.97;4212957;28;20030;-69
2024/01/06 08:06:35;;;;;;;;;;;;;;;2.10;90.94;100525.63;4213557;28;20023;-70
2024/01/06 08:08:37;;;;;;;;;;;;;;;2.08;90.81;100522.25;4212379;28;20022;-70
2024/01/06 08:10:39;;;;;;;;;;;;;;;2.07;90.78;100528.56;4212591;28;19935;-70
2024/01/06 08:12:41;;;;;;;;;;;;;;;2.07;90.82;100527.69;4210472;28;20018;-71
2024/01/06 08:14:43;;;;;;;;;;;;;;;2.06;90.71;100537.50;4212090;28;20019;-70
2024/01/06 08:16:45;;;;;;;;;;;;;;;2.07;90.77;100538.34;4209353;28;20517;-70
2024/01/06 08:18:46;;;;;;;;;;;;;;;2.06;90.81;100540.19;4210614;28;20011;-70
2024/01/06 08:20:50;;;;;;;;;;;;;;;2.07;91.06;100535.69;4208565;28;19955;-71
2024/01/06 08:22:52;;;;;;;;;;;;;;;2.06;90.78;100534.84;4209604;28;20045;-70
2024/01/06 08:24:53;;;;;;;;;;;;;;;2.06;90.81;100534.84;4201541;28;20044;-70
2024/01/06 08:26:57;;;;;;;;;;;;;;;2.06;90.85;100542.84;4210700;28;19924;-71
2024/01/06 08:28:58;;;;;;;;;;;;;;;2.07;90.80;100546.34;4210417;28;20369;-71
2024/01/06 08:31:00;;;;;;;;;;;;;;;2.05;90.72;100545.63;4211018;28;19927;-70
2024/01/06 08:33:04;;;;;;;;;;;;;;;2.05;90.77;100543.81;4208932;28;20007;-70
2024/01/06 08:35:06;;;;;;;;;;;;;;;2.05;90.97;100559.78;4209870;28;20371;-70
2024/01/06 08:37:10;;;;;;;;;;;;;;;2.04;90.56;100554.59;4210581;28;20358;-70
2024/01/06 08:39:12;;;;;;;;;;;;;;;2.02;90.42;100557.38;4211844;28;20023;-69
2024/01/06 08:41:13;;;;;;;;;;;;;;;2.02;90.76;100553.88;4210028;28;20033;-70
2024/01/06 08:43:15;;;;;;;;;;;;;;;2.02;90.84;100560.03;4210681;28;19960;-70
2024/01/06 08:45:17;;;;;;;;;;;;;;;2.03;90.87;100560.91;4210836;28;20031;-70
2024/01/06 08:47:19;;;;;;;;;;;;;;;2.01;90.68;100562.81;4210200;28;20366;-69
2024/01/06 08:49:21;;;;;;;;;;;;;;;2.01;90.66;100574.34;4207713;28;20007;-70
2024/01/06 08:51:24;;;;;;;;;;;;;;;2.02;90.87;100572.53;4209215;28;20382;-69
2024/01/06 08:53:27;;;;;;;;;;;;;;;2.01;90.92;100586.81;4210462;28;20045;-70
2024/01/06 08:55:29;;;;;;;;;;;;;;;2.01;90.99;100578.81;4210255;28;20018;-69
2024/01/06 08:57:31;;;;;;;;;;;;;;;2.00;90.58;100571.81;4211210;28;20024;-69
2024/01/06 08:59:34;;;;;;;;;;;;;;;2.02;90.87;100575.19;4210568;28;20022;-69
2024/01/06 09:01:37;;;;;;;;;;;;;;;2.01;90.75;100589.47;4218125;28;20003;-70
2024/01/06 09:03:39;;;;;;;;;;;;;;;2.01;90.91;100582.34;4211304;28;20003;-69
2024/01/06 09:05:41;;;;;;;;;;;;;;;2.00;90.75;100599.28;4211764;28;20026;-69
2024/01/06 09:07:43;;;;;;;;;;;;;;;1.97;90.92;100605.72;4212006;28;20007;-69
2024/01/06 09:09:46;;;;;;;;;;;;;;;1.96;90.76;100601.34;4211559;28;20030;-69
2024/01/06 09:11:48;;;;;;;;;;;;;;;1.99;90.92;100608.22;4209216;28;20504;-69
2024/01/06 09:13:52;;;;;;;;;;;;;;;2.00;91.25;100614.44;4208973;28;20031;-69
2024/01/06 09:15:54;;;;;;;;;;;;;;;1.98;91.19;100614.56;4210944;28;20448;-69
2024/01/06 09:17:55;;;;;;;;;;;;;;;1.98;91.14;100619.88;4210603;28;20039;-69
2024/01/06 09:19:57;;;;;;;;;;;;;;;1.99;91.28;100624.22;4209137;28;19932;-69
2024/01/06 09:21:59;;;;;;;;;;;;;;;1.98;91.16;100628.72;4211389;28;20865;-70
2024/01/06 09:24:05;;;;;;;;;;;;;;;1.97;91.15;100626.16;4210038;28;20039;-70
2024/01/06 09:26:09;;;;;;;;;;;;;;;1.98;91.20;100622.53;4211006;28;20019;-70
2024/01/06 09:28:11;;;;;;;;;;;;;;;2.00;91.18;100633.06;4210663;28;20014;-70
2024/01/06 09:30:12;;;;;;;;;;;;;;;1.99;91.09;100629.53;4210650;28;20018;-69
2024/01/06 09:32:14;;;;;;;;;;;;;;;1.96;90.89;100636.00;4211378;28;19935;-69
2024/01/06 09:34:16;;;;;;;;;;;;;;;1.94;90.63;100640.59;4210123;28;20014;-69
2024/01/06 09:36:19;;;;;;;;;;;;;;;1.94;90.50;100637.94;4209598;28;20031;-69
2024/01/06 09:38:22;;;;;;;;;;;;;;;1.95;90.68;100642.28;4212246;28;20010;-70
2024/01/06 09:40:24;;;;;;;;;;;;;;;1.96;90.73;100645.81;4212058;28;20023;-70
2024/01/06 09:42:26;;;;;;;;;;;;;;;1.94;90.78;100648.59;4211458;28;20342;-70
2024/01/06 09:44:28;;;;;;;;;;;;;;;1.94;90.74;100645.94;4212445;28;20015;-70
2024/01/06 09:46:30;;;;;;;;;;;;;;;1.96;90.87;100651.13;4211110;28;20368;-70
2024/01/06 09:48:33;;;;;;;;;;;;;;;1.94;90.70;100645.94;4209713;28;20012;-69
2024/01/06 09:50:39;;;;;;;;;;;;;;;1.93;90.52;100651.38;4212096;28;20027;-70
2024/01/06 09:52:43;;;;;;;;;;;;;;;1.93;90.42;100654.88;4211800;28;19924;-70
2024/01/06 09:54:46;;;;;;;;;;;;;;;1.92;90.49;100655.84;4212421;28;20023;-70
2024/01/06 09:56:48;;;;;;;;;;;;;;;1.91;90.32;100648.84;4209858;28;20489;-69
2024/01/06 09:58:51;;;;;;;;;;;;;;;1.90;90.23;100656.94;4211831;28;20429;-69
2024/01/06 10:00:53;;;;;;;;;;;;;;;1.89;90.11;100655.25;4211236;28;20429;-69
2024/01/06 10:02:55;;;;;;;;;;;;;;;1.88;89.98;100661.53;4208672;28;20024;-70
2024/01/06 10:04:56;;;;;;;;;;;;;;;1.86;89.82;100668.81;4211271;28;20023;-70
2024/01/06 10:06:58;;;;;;;;;;;;;;;1.86;90.16;100674.97;4202086;28;20028;-69
2024/01/06 10:08:59;;;;;;;;;;;;;;;1.85;90.10;100683.94;4212466;28;20106;-70
2024/01/06 10:11:01;;;;;;;;;;;;;;;1.85;89.95;100685.75;4210415;28;20378;-70
2024/01/06 10:13:04;;;;;;;;;;;;;;;1.86;90.03;100698.09;4212318;28;20461;-69
2024/01/06 10:15:08;;;;;;;;;;;;;;;1.85;90.30;100689.28;4211431;28;20059;-70
2024/01/06 10:17:11;;;;;;;;;;;;;;;1.83;90.10;100677.88;4212714;28;20011;-71
2024/01/06 10:19:13;;;;;;;;;;;;;;;1.84;89.98;100684.91;4213815;28;20018;-70
2024/01/06 10:21:17;;;;;;;;;;;;;;;1.86;90.01;100682.13;4211655;28;20019;-71
2024/01/06 10:23:19;;;;;;;;;;;;;;;1.86;90.16;100676.78;4212545;28;20080;-71
2024/01/06 10:25:22;;;;;;;;;;;;;;;1.87;89.83;100683.81;4213919;28;20014;-69
2024/01/06 10:27:24;;;;;;;;;;;;;;;1.85;89.93;100675.09;4213643;28;20022;-72
2024/01/06 10:29:27;;;;;;;;;;;;;;;1.83;89.83;100680.53;4185919;28;19960;-71
2024/01/06 10:31:31;;;;;;;;;;;;;;;1.84;89.71;100687.56;4213164;28;20421;-70
2024/01/06 10:33:33;;;;;;;;;;;;;;;1.86;89.92;100690.13;4213639;28;20022;-70
2024/01/06 10:35:36;;;;;;;;;;;;;;;1.86;89.69;100690.94;4212743;28;20020;-69
2024/01/06 10:37:38;;;;;;;;;;;;;;;1.85;89.63;100691.06;4211694;28;19967;-70